Terminal Aerodrome Forecast
Issued by NWS

Home | Current Version | Previous Version | Text Only | Print | Product List | Glossary On
Versions: 1 2 3 4 5 6 7 8 9 10 11 12 13 14 15 16 17
998
FTUS42 KTBW 092335
TAFPGD
TAF
KPGD 092335Z 1000/1024 03010KT P6SM BKN200
     FM101400 05012KT P6SM SCT030 SCT300
     FM101900 06013KT P6SM BKN040=

USA.gov is the U.S. government's official web portal to all federal, state and local government web resources and services.